N617DM MYNN-MYEH
Flight info
| Callsign | N617DM |
|---|---|
| Flight time | 0h 29m |
| Altitude | 9000 |
| Route | JAVIS2 JEDIK |
| Aircraft | PA24/L-BDFGLORY/S |
Departure
| Time | 2026-05-06 17:10 |
|---|---|
| Airport | Lynden Pindling International Airport (MYNN) |
Arrival
| Time | 2026-05-06 17:39 |
|---|---|
| Airport | North Eleuthera Airport (MYEH) |
| Time | Latitude | Longitude | Altitude | Speed | Heading |
|---|---|---|---|---|---|
| 2026-05-06 16:57 | 25.04577 | -77.46383 | 6 ft | 0 kts | 109° |
| 2026-05-06 17:04 | 25.04530 | -77.46360 | 6 ft | 14 kts | 231° |
| 2026-05-06 17:04 | 25.04507 | -77.46397 | 6 ft | 0 kts | 237° |
| 2026-05-06 17:04 | 25.04506 | -77.46398 | 6 ft | 3 kts | 236° |
| 2026-05-06 17:05 | 25.04434 | -77.46450 | 6 ft | 20 kts | 179° |
| 2026-05-06 17:05 | 25.04332 | -77.46354 | 6 ft | 20 kts | 135° |
| 2026-05-06 17:05 | 25.04229 | -77.46244 | 6 ft | 21 kts | 135° |
| 2026-05-06 17:05 | 25.04127 | -77.46130 | 6 ft | 21 kts | 133° |
| 2026-05-06 17:06 | 25.04028 | -77.46016 | 6 ft | 20 kts | 136° |
| 2026-05-06 17:06 | 25.03926 | -77.45908 | 6 ft | 20 kts | 135° |
| 2026-05-06 17:06 | 25.03828 | -77.45800 | 6 ft | 20 kts | 131° |
| 2026-05-06 17:06 | 25.03730 | -77.45691 | 6 ft | 20 kts | 134° |
| 2026-05-06 17:07 | 25.03635 | -77.45580 | 6 ft | 20 kts | 133° |
| 2026-05-06 17:07 | 25.03534 | -77.45471 | 5 ft | 20 kts | 135° |
| 2026-05-06 17:07 | 25.03433 | -77.45364 | 5 ft | 20 kts | 135° |
| 2026-05-06 17:07 | 25.03336 | -77.45251 | 5 ft | 20 kts | 131° |
| 2026-05-06 17:08 | 25.03244 | -77.45183 | 5 ft | 14 kts | 165° |
| 2026-05-06 17:08 | 25.03165 | -77.45182 | 5 ft | 4 kts | 188° |
| 2026-05-06 17:08 | 25.03139 | -77.45187 | 5 ft | 10 kts | 194° |
| 2026-05-06 17:09 | 25.03099 | -77.45216 | 6 ft | 4 kts | 225° |
| 2026-05-06 17:09 | 25.03104 | -77.45246 | 5 ft | 17 kts | 307° |
| 2026-05-06 17:09 | 25.03472 | -77.45666 | 9 ft | 85 kts | 316° |
| 2026-05-06 17:09 | 25.03899 | -77.46159 | 161 ft | 91 kts | 316° |
| 2026-05-06 17:10 | 25.04205 | -77.46509 | 279 ft | 98 kts | 315° |
| 2026-05-06 17:10 | 25.04642 | -77.47356 | 795 ft | 97 kts | 279° |
| 2026-05-06 17:10 | 25.04637 | -77.47849 | 985 ft | 97 kts | 263° |
| 2026-05-06 17:10 | 25.04529 | -77.48589 | 1318 ft | 96 kts | 258° |
| 2026-05-06 17:11 | 25.04369 | -77.49319 | 1676 ft | 95 kts | 261° |
| 2026-05-06 17:11 | 25.04395 | -77.50042 | 1989 ft | 95 kts | 282° |
| 2026-05-06 17:11 | 25.04657 | -77.50696 | 2302 ft | 95 kts | 302° |
| 2026-05-06 17:11 | 25.04951 | -77.51327 | 2633 ft | 92 kts | 285° |
| 2026-05-06 17:12 | 25.05000 | -77.52059 | 2878 ft | 99 kts | 270° |
| 2026-05-06 17:12 | 25.05011 | -77.52828 | 3145 ft | 102 kts | 279° |
| 2026-05-06 17:12 | 25.05392 | -77.53470 | 3436 ft | 104 kts | 326° |
| 2026-05-06 17:12 | 25.06111 | -77.53619 | 3686 ft | 112 kts | 7° |
| 2026-05-06 17:13 | 25.06807 | -77.53190 | 3896 ft | 122 kts | 50° |
| 2026-05-06 17:13 | 25.07176 | -77.52332 | 4109 ft | 127 kts | 70° |
| 2026-05-06 17:13 | 25.07483 | -77.51398 | 4307 ft | 131 kts | 69° |
| 2026-05-06 17:13 | 25.07820 | -77.50443 | 4506 ft | 135 kts | 68° |
| 2026-05-06 17:14 | 25.08179 | -77.49471 | 4604 ft | 145 kts | 68° |
| 2026-05-06 17:14 | 25.08583 | -77.48394 | 4596 ft | 156 kts | 67° |
| 2026-05-06 17:14 | 25.09014 | -77.47255 | 4506 ft | 164 kts | 67° |
| 2026-05-06 17:14 | 25.09461 | -77.46077 | 4386 ft | 168 kts | 67° |
| 2026-05-06 17:15 | 25.09915 | -77.44879 | 4256 ft | 170 kts | 67° |
| 2026-05-06 17:15 | 25.10372 | -77.43674 | 4138 ft | 171 kts | 66° |
| 2026-05-06 17:15 | 25.10831 | -77.42464 | 4013 ft | 171 kts | 66° |
| 2026-05-06 17:15 | 25.11283 | -77.41268 | 3893 ft | 170 kts | 66° |
| 2026-05-06 17:16 | 25.11746 | -77.40046 | 3777 ft | 170 kts | 66° |
| 2026-05-06 17:16 | 25.12194 | -77.38861 | 3655 ft | 170 kts | 66° |
| 2026-05-06 17:16 | 25.12651 | -77.37654 | 3534 ft | 170 kts | 66° |
| 2026-05-06 17:16 | 25.13107 | -77.36447 | 3410 ft | 169 kts | 66° |
| 2026-05-06 17:17 | 25.13560 | -77.35249 | 3287 ft | 169 kts | 66° |
| 2026-05-06 17:17 | 25.14010 | -77.34058 | 3164 ft | 169 kts | 66° |
| 2026-05-06 17:17 | 25.14466 | -77.32851 | 3039 ft | 168 kts | 66° |
| 2026-05-06 17:17 | 25.14916 | -77.31658 | 2916 ft | 168 kts | 66° |
| 2026-05-06 17:18 | 25.15364 | -77.30472 | 2796 ft | 167 kts | 66° |
| 2026-05-06 17:18 | 25.15812 | -77.29286 | 2674 ft | 167 kts | 66° |
| 2026-05-06 17:18 | 25.16260 | -77.28099 | 2549 ft | 167 kts | 66° |
| 2026-05-06 17:18 | 25.16705 | -77.26920 | 2478 ft | 162 kts | 66° |
| 2026-05-06 17:19 | 25.17132 | -77.25788 | 2482 ft | 157 kts | 66° |
| 2026-05-06 17:19 | 25.17542 | -77.24699 | 2479 ft | 154 kts | 66° |
| 2026-05-06 17:19 | 25.17954 | -77.23607 | 2482 ft | 153 kts | 66° |
| 2026-05-06 17:19 | 25.18363 | -77.22522 | 2475 ft | 153 kts | 67° |
| 2026-05-06 17:20 | 25.18775 | -77.21427 | 2480 ft | 154 kts | 66° |
| 2026-05-06 17:20 | 25.19185 | -77.20340 | 2475 ft | 154 kts | 66° |
| 2026-05-06 17:20 | 25.19596 | -77.19248 | 2475 ft | 154 kts | 66° |
| 2026-05-06 17:20 | 25.20007 | -77.18156 | 2471 ft | 154 kts | 67° |
| 2026-05-06 17:21 | 25.20418 | -77.17064 | 2473 ft | 154 kts | 66° |
| 2026-05-06 17:21 | 25.20831 | -77.15967 | 2472 ft | 154 kts | 67° |
| 2026-05-06 17:21 | 25.21244 | -77.14868 | 2466 ft | 155 kts | 67° |
| 2026-05-06 17:21 | 25.21660 | -77.13761 | 2467 ft | 157 kts | 67° |
| 2026-05-06 17:22 | 25.22083 | -77.12637 | 2470 ft | 158 kts | 66° |
| 2026-05-06 17:22 | 25.22507 | -77.11507 | 2463 ft | 159 kts | 66° |
| 2026-05-06 17:22 | 25.22932 | -77.10376 | 2468 ft | 159 kts | 67° |
| 2026-05-06 17:22 | 25.23358 | -77.09242 | 2468 ft | 160 kts | 67° |
| 2026-05-06 17:23 | 25.23785 | -77.08106 | 2468 ft | 160 kts | 67° |
| 2026-05-06 17:23 | 25.24205 | -77.06987 | 2464 ft | 160 kts | 67° |
| 2026-05-06 17:23 | 25.24636 | -77.05839 | 2467 ft | 160 kts | 66° |
| 2026-05-06 17:23 | 25.25054 | -77.04723 | 2457 ft | 160 kts | 67° |
| 2026-05-06 17:24 | 25.25480 | -77.03589 | 2467 ft | 159 kts | 66° |
| 2026-05-06 17:24 | 25.25915 | -77.02429 | 2471 ft | 160 kts | 67° |
| 2026-05-06 17:24 | 25.26334 | -77.01311 | 2472 ft | 160 kts | 67° |
| 2026-05-06 17:24 | 25.26767 | -77.00156 | 2460 ft | 160 kts | 67° |
| 2026-05-06 17:25 | 25.27200 | -76.99001 | 2459 ft | 160 kts | 67° |
| 2026-05-06 17:25 | 25.27625 | -76.97865 | 2471 ft | 160 kts | 67° |
| 2026-05-06 17:25 | 25.28053 | -76.96722 | 2463 ft | 160 kts | 67° |
| 2026-05-06 17:25 | 25.28480 | -76.95582 | 2471 ft | 160 kts | 67° |
| 2026-05-06 17:26 | 25.28907 | -76.94440 | 2465 ft | 160 kts | 67° |
| 2026-05-06 17:26 | 25.29333 | -76.93304 | 2464 ft | 160 kts | 67° |
| 2026-05-06 17:26 | 25.29755 | -76.92174 | 2469 ft | 160 kts | 67° |
| 2026-05-06 17:26 | 25.30181 | -76.91036 | 2465 ft | 159 kts | 67° |
| 2026-05-06 17:27 | 25.30605 | -76.89901 | 2468 ft | 160 kts | 67° |
| 2026-05-06 17:27 | 25.31038 | -76.88744 | 2466 ft | 160 kts | 67° |
| 2026-05-06 17:27 | 25.31456 | -76.87623 | 2470 ft | 160 kts | 67° |
| 2026-05-06 17:27 | 25.31893 | -76.86486 | 2461 ft | 160 kts | 62° |
| 2026-05-06 17:28 | 25.32621 | -76.85560 | 2468 ft | 158 kts | 34° |
| 2026-05-06 17:28 | 25.33618 | -76.85116 | 2465 ft | 157 kts | 7° |
| 2026-05-06 17:28 | 25.34706 | -76.85221 | 2469 ft | 155 kts | 340° |
| 2026-05-06 17:28 | 25.35702 | -76.85660 | 2480 ft | 154 kts | 335° |
| 2026-05-06 17:29 | 25.36699 | -76.86115 | 2475 ft | 155 kts | 337° |
| 2026-05-06 17:29 | 25.37702 | -76.86562 | 2476 ft | 156 kts | 337° |
| 2026-05-06 17:29 | 25.38643 | -76.87132 | 2466 ft | 155 kts | 314° |
| 2026-05-06 17:29 | 25.39053 | -76.88212 | 2467 ft | 155 kts | 275° |
| 2026-05-06 17:30 | 25.38986 | -76.89401 | 2468 ft | 155 kts | 259° |
| 2026-05-06 17:30 | 25.38726 | -76.90560 | 2465 ft | 155 kts | 256° |
| 2026-05-06 17:30 | 25.38449 | -76.91711 | 2468 ft | 155 kts | 256° |
| 2026-05-06 17:30 | 25.38168 | -76.92865 | 2472 ft | 155 kts | 256° |
| 2026-05-06 17:31 | 25.37892 | -76.94002 | 2472 ft | 155 kts | 256° |
| 2026-05-06 17:31 | 25.37892 | -76.95166 | 2462 ft | 154 kts | 291° |
| 2026-05-06 17:31 | 25.38604 | -76.96017 | 2466 ft | 153 kts | 334° |
| 2026-05-06 17:31 | 25.39651 | -76.96100 | 2471 ft | 155 kts | 14° |
| 2026-05-06 17:32 | 25.40295 | -76.95764 | 2469 ft | 156 kts | 35° |
| 2026-05-06 17:32 | 25.40924 | -76.94809 | 2465 ft | 157 kts | 71° |
| 2026-05-06 17:32 | 25.40960 | -76.93595 | 2469 ft | 158 kts | 96° |
| 2026-05-06 17:32 | 25.40812 | -76.92389 | 2475 ft | 159 kts | 97° |
| 2026-05-06 17:33 | 25.40693 | -76.91174 | 2461 ft | 160 kts | 95° |
| 2026-05-06 17:33 | 25.40596 | -76.89940 | 2298 ft | 162 kts | 94° |
| 2026-05-06 17:33 | 25.40508 | -76.88704 | 2140 ft | 161 kts | 94° |
| 2026-05-06 17:33 | 25.40578 | -76.87476 | 1985 ft | 160 kts | 73° |
| 2026-05-06 17:34 | 25.40971 | -76.86335 | 1829 ft | 159 kts | 68° |
| 2026-05-06 17:34 | 25.41386 | -76.85200 | 1683 ft | 158 kts | 68° |
| 2026-05-06 17:34 | 25.41798 | -76.84070 | 1575 ft | 156 kts | 68° |
| 2026-05-06 17:34 | 25.42198 | -76.82970 | 1574 ft | 149 kts | 68° |
| 2026-05-06 17:35 | 25.42578 | -76.81922 | 1577 ft | 145 kts | 68° |
| 2026-05-06 17:35 | 25.42949 | -76.80898 | 1572 ft | 143 kts | 68° |
| 2026-05-06 17:35 | 25.43314 | -76.79889 | 1573 ft | 138 kts | 68° |
| 2026-05-06 17:36 | 25.44004 | -76.77981 | 1572 ft | 131 kts | 68° |
| 2026-05-06 17:36 | 25.44342 | -76.77050 | 1568 ft | 129 kts | 68° |
| 2026-05-06 17:36 | 25.44674 | -76.76133 | 1558 ft | 129 kts | 68° |
| 2026-05-06 17:36 | 25.45018 | -76.75185 | 1468 ft | 132 kts | 69° |
| 2026-05-06 17:37 | 25.45331 | -76.74315 | 1484 ft | 114 kts | 68° |
| 2026-05-06 17:37 | 25.45615 | -76.73508 | 1307 ft | 114 kts | 68° |
| 2026-05-06 17:37 | 25.45903 | -76.72731 | 1150 ft | 96 kts | 68° |
| 2026-05-06 17:37 | 25.46145 | -76.72074 | 990 ft | 90 kts | 68° |
| 2026-05-06 17:38 | 25.46382 | -76.71438 | 830 ft | 90 kts | 67° |
| 2026-05-06 17:38 | 25.46604 | -76.70790 | 664 ft | 90 kts | 68° |
| 2026-05-06 17:38 | 25.46832 | -76.70152 | 478 ft | 89 kts | 68° |
| 2026-05-06 17:38 | 25.47072 | -76.69507 | 256 ft | 89 kts | 68° |
| 2026-05-06 17:39 | 25.47283 | -76.68902 | 21 ft | 83 kts | 69° |
| 2026-05-06 17:39 | 25.47455 | -76.68427 | 10 ft | 53 kts | 68° |
| 2026-05-06 17:39 | 25.47553 | -76.68194 | 9 ft | 16 kts | 14° |
| 2026-05-06 17:39 | 25.47623 | -76.68200 | 7 ft | 0 kts | 336° |
| 2026-05-06 17:40 | 25.47637 | -76.68207 | 7 ft | 0 kts | 334° |